Thunderstorms From: 15-12-2017 06:00 Until: 16-12-2017 06:00 warning for: Thunderstorms Level: Yellow info button

Although rather usual in this region, locally or potentially dangerous phenomena are expected. (such as local winds, summer thunderstorms, rising streams or high waves) Be aware and pay attention to the latest weather updates, especially if you carry out activities exposed to weather or close to a stream or shoreline. 


Meteo18 Weather Cam more information Meteo18 Weather Cam


warning for Thunderstorms more information blitzortung!


Rain radar more information rain snow radar


Visit our other weather sites:

Template documentation
and downloads

And another site



Weather Underground History page Text

Daily Summary for May 19, 2017 Units:  Both    English   Metric
« Previous Day
Next Day »
Daily Weekly Monthly Yearly Custom
  High: Low: Average:
Temperature: 57.6 °F /  14.2 °C 46.6 °F /  8.1 °C 50.9 °F /  10.5 °C
Dew Point: 49.1 °F /  9.5 °C 43.5 °F /  6.4 °C 46.4 °F /  8 °C
Humidity: 95 % 62 % 85 %
Wind Speed: 15 mph /  24.1 km/h - 3.9 mph /  6.3 km/h
Wind Gust: 22 mph /  35.4 km/h - -
Wind:- - WSW
Pressure: 30.1 in /  1019.5 hPa 30 in /  1015.1 hPa -
Precipitation: 0.35 in /  8.9 mm    
Historical Graphs
 
 
Tabular Data for May 19, 2017
Time Temperature Dew Point Pressure Wind Wind Speed Wind Gust Humidity Rainfall Rate (Hourly)
00:02 50.7 °F /  10.4 °C 49.1 °F /  9.5 °C 30 in /  1015.1 hPa WSW 6 mph /  9.7 km/h 15 mph /  24.1 km/h 94 % 0.03 in /  0.8 mm
00:07 50.7 °F /  10.4 °C 49.1 °F /  9.5 °C 30 in /  1015.5 hPa SW 5 mph /  8.0 km/h 14 mph /  22.5 km/h 94 % 0.04 in /  1.0 mm
00:12 50.7 °F /  10.4 °C 49.1 °F /  9.5 °C 30 in /  1015.5 hPa WSW 5 mph /  8.0 km/h 14 mph /  22.5 km/h 94 % 0.03 in /  0.8 mm
00:17 50.7 °F /  10.4 °C 49.1 °F /  9.5 °C 30 in /  1015.5 hPa SW 8 mph /  12.9 km/h 14 mph /  22.5 km/h 94 % 0.03 in /  0.8 mm
00:22 50.7 °F /  10.4 °C 49.1 °F /  9.5 °C 30 in /  1015.5 hPa SW 6 mph /  9.7 km/h 14 mph /  22.5 km/h 94 % 0.03 in /  0.8 mm
00:27 50.5 °F /  10.3 °C 48.9 °F /  9.4 °C 30 in /  1015.5 hPa WSW 9 mph /  14.5 km/h 13 mph /  20.9 km/h 94 % 0.03 in /  0.8 mm
00:32 50.5 °F /  10.3 °C 48.9 °F /  9.4 °C 30 in /  1015.5 hPa SW 7 mph /  11.3 km/h 13 mph /  20.9 km/h 94 % 0.03 in /  0.8 mm
00:42 50.5 °F /  10.3 °C 48.9 °F /  9.4 °C 30 in /  1015.5 hPa SW 6 mph /  9.7 km/h 14 mph /  22.5 km/h 94 % 0.02 in /  0.5 mm
00:47 50.5 °F /  10.3 °C 48.9 °F /  9.4 °C 30 in /  1015.5 hPa SW 7 mph /  11.3 km/h 14 mph /  22.5 km/h 94 % 0.03 in /  0.8 mm
00:52 50.5 °F /  10.3 °C 49.1 °F /  9.5 °C 30 in /  1015.5 hPa SW 9 mph /  14.5 km/h 13 mph /  20.9 km/h 95 % 0.03 in /  0.8 mm
00:57 50.4 °F /  10.2 °C 48.9 °F /  9.4 °C 30 in /  1015.5 hPa West 2 mph /  3.2 km/h 16 mph /  25.7 km/h 95 % 0.03 in /  0.8 mm
01:02 50.4 °F /  10.2 °C 48.9 °F /  9.4 °C 30 in /  1015.5 hPa SSW 7 mph /  11.3 km/h 16 mph /  25.7 km/h 95 % 0.03 in /  0.8 mm
01:07 50.4 °F /  10.2 °C 48.7 °F /  9.3 °C 30 in /  1015.5 hPa SW 7 mph /  11.3 km/h 16 mph /  25.7 km/h 94 % 0.02 in /  0.5 mm
01:12 50.4 °F /  10.2 °C 48.7 °F /  9.3 °C 30 in /  1015.1 hPa WSW 7 mph /  11.3 km/h 12 mph /  19.3 km/h 94 % 0.03 in /  0.8 mm
01:17 50.2 °F /  10.1 °C 48.6 °F /  9.2 °C 30 in /  1015.5 hPa WSW 4 mph /  6.4 km/h 12 mph /  19.3 km/h 94 % 0.03 in /  0.8 mm
01:22 50.2 °F /  10.1 °C 48.6 °F /  9.2 °C 30 in /  1015.5 hPa WSW 7 mph /  11.3 km/h 12 mph /  19.3 km/h 94 % 0.03 in /  0.8 mm
01:27 50.2 °F /  10.1 °C 48.6 °F /  9.2 °C 30 in /  1015.5 hPa West 5 mph /  8.0 km/h 12 mph /  19.3 km/h 94 % 0.03 in /  0.8 mm
01:32 50.2 °F /  10.1 °C 48.6 °F /  9.2 °C 30 in /  1015.5 hPa SW 8 mph /  12.9 km/h 12 mph /  19.3 km/h 94 % 0.04 in /  1.0 mm
01:37 50 °F /  10.0 °C 48 °F /  8.9 °C 30 in /  1015.5 hPa West 4 mph /  6.4 km/h 12 mph /  19.3 km/h 93 % 0.03 in /  0.8 mm
01:42 49.8 °F /  9.9 °C 47.8 °F /  8.8 °C 30 in /  1015.5 hPa West 6 mph /  9.7 km/h 12 mph /  19.3 km/h 93 % 0.03 in /  0.8 mm
01:47 49.6 °F /  9.8 °C 47.5 °F /  8.6 °C 30 in /  1015.5 hPa West 4 mph /  6.4 km/h 10 mph /  16.1 km/h 92 % 0.02 in /  0.5 mm
01:52 49.5 °F /  9.7 °C 47.3 °F /  8.5 °C 30 in /  1015.5 hPa WSW 8 mph /  12.9 km/h 9 mph /  14.5 km/h 92 % 0.02 in /  0.5 mm
01:57 49.3 °F /  9.6 °C 46.8 °F /  8.2 °C 30 in /  1015.5 hPa West 7 mph /  11.3 km/h 10 mph /  16.1 km/h 91 % 0.02 in /  0.5 mm
02:02 49.1 °F /  9.5 °C 46.6 °F /  8.1 °C 30 in /  1015.5 hPa WNW 3 mph /  4.8 km/h 10 mph /  16.1 km/h 91 % 0.02 in /  0.5 mm
02:07 48.7 °F /  9.3 °C 46.2 °F /  7.9 °C 30 in /  1015.5 hPa West 7 mph /  11.3 km/h 10 mph /  16.1 km/h 91 % 0.01 in /  0.3 mm
02:12 48.6 °F /  9.2 °C 46 °F /  7.8 °C 30 in /  1015.5 hPa West 5 mph /  8.0 km/h 10 mph /  16.1 km/h 91 % 0.01 in /  0.3 mm
02:17 48.4 °F /  9.1 °C 45.9 °F /  7.7 °C 30 in /  1015.5 hPa SW 3 mph /  4.8 km/h 10 mph /  16.1 km/h 91 % 0.01 in /  0.3 mm
02:22 48 °F /  8.9 °C 45.5 °F /  7.5 °C 30 in /  1015.5 hPa West 2 mph /  3.2 km/h 10 mph /  16.1 km/h 91 % 0.01 in /  0.3 mm
02:27 48 °F /  8.9 °C 45.9 °F /  7.7 °C 30 in /  1015.5 hPa West 4 mph /  6.4 km/h 11 mph /  17.7 km/h 92 % 0.01 in /  0.3 mm
02:32 48 °F /  8.9 °C 45.9 °F /  7.7 °C 30 in /  1015.5 hPa WNW 2 mph /  3.2 km/h 11 mph /  17.7 km/h 92 % 0 in /  0.0 mm
02:39 47.8 °F /  8.8 °C 45.7 °F /  7.6 °C 30 in /  1015.5 hPa NW 5 mph /  8.0 km/h 11 mph /  17.7 km/h 92 % 0 in /  0.0 mm
02:47 47.8 °F /  8.8 °C 45.7 °F /  7.6 °C 30 in /  1015.5 hPa NW 3 mph /  4.8 km/h 11 mph /  17.7 km/h 92 % 0 in /  0.0 mm
02:52 47.7 °F /  8.7 °C 45.5 °F /  7.5 °C 30 in /  1015.5 hPa WNW 3 mph /  4.8 km/h 11 mph /  17.7 km/h 92 % 0 in /  0.0 mm
03:02 47.7 °F /  8.7 °C 45.1 °F /  7.3 °C 30 in /  1015.5 hPa WNW 2 mph /  3.2 km/h 8 mph /  12.9 km/h 91 % 0 in /  0.0 mm
03:07 47.7 °F /  8.7 °C 45.1 °F /  7.3 °C 30 in /  1015.5 hPa West 1 mph /  1.6 km/h 7 mph /  11.3 km/h 91 % 0 in /  0.0 mm
03:12 47.7 °F /  8.7 °C 45.5 °F /  7.5 °C 30 in /  1015.5 hPa WNW 2 mph /  3.2 km/h 7 mph /  11.3 km/h 92 % 0 in /  0.0 mm
03:17 47.7 °F /  8.7 °C 45.5 °F /  7.5 °C 30 in /  1015.5 hPa Calm   6 mph /  9.7 km/h 92 % 0 in /  0.0 mm
03:22 47.7 °F /  8.7 °C 45.5 °F /  7.5 °C 30 in /  1015.5 hPa Calm   6 mph /  9.7 km/h 92 % 0 in /  0.0 mm
03:27 47.7 °F /  8.7 °C 45.5 °F /  7.5 °C 30 in /  1015.5 hPa West 1 mph /  1.6 km/h 4 mph /  6.4 km/h 92 % 0 in /  0.0 mm
03:32 47.7 °F /  8.7 °C 45.7 °F /  7.6 °C 30 in /  1015.5 hPa West 3 mph /  4.8 km/h 4 mph /  6.4 km/h 93 % 0 in /  0.0 mm
03:37 47.7 °F /  8.7 °C 45.7 °F /  7.6 °C 30 in /  1015.5 hPa West 2 mph /  3.2 km/h 5 mph /  8.0 km/h 93 % 0 in /  0.0 mm
03:42 47.8 °F /  8.8 °C 45.9 °F /  7.7 °C 30 in /  1015.5 hPa WSW 2 mph /  3.2 km/h 5 mph /  8.0 km/h 93 % 0 in /  0.0 mm
03:47 47.8 °F /  8.8 °C 46.2 °F /  7.9 °C 30 in /  1015.5 hPa West 1 mph /  1.6 km/h 6 mph /  9.7 km/h 94 % 0 in /  0.0 mm
03:52 47.8 °F /  8.8 °C 46.2 °F /  7.9 °C 30 in /  1015.5 hPa SW 2 mph /  3.2 km/h 6 mph /  9.7 km/h 94 % 0 in /  0.0 mm
03:57 47.8 °F /  8.8 °C 46.2 °F /  7.9 °C 30 in /  1015.5 hPa WSW 3 mph /  4.8 km/h 6 mph /  9.7 km/h 94 % 0 in /  0.0 mm
04:02 47.8 °F /  8.8 °C 46.2 °F /  7.9 °C 30 in /  1015.5 hPa West 2 mph /  3.2 km/h 6 mph /  9.7 km/h 94 % 0 in /  0.0 mm
04:12 47.8 °F /  8.8 °C 46.2 °F /  7.9 °C 30 in /  1015.5 hPa SW 2 mph /  3.2 km/h 5 mph /  8.0 km/h 94 % 0 in /  0.0 mm
04:17 47.8 °F /  8.8 °C 46.2 °F /  7.9 °C 30 in /  1015.5 hPa WSW 2 mph /  3.2 km/h 5 mph /  8.0 km/h 94 % 0 in /  0.0 mm
04:27 48 °F /  8.9 °C 46.4 °F /  8.0 °C 30 in /  1015.5 hPa WSW 3 mph /  4.8 km/h 5 mph /  8.0 km/h 94 % 0 in /  0.0 mm
04:32 48 °F /  8.9 °C 46.4 °F /  8.0 °C 30 in /  1015.5 hPa WSW 2 mph /  3.2 km/h 5 mph /  8.0 km/h 94 % 0 in /  0.0 mm
04:42 48 °F /  8.9 °C 46.4 °F /  8.0 °C 30 in /  1015.5 hPa SW 2 mph /  3.2 km/h 5 mph /  8.0 km/h 94 % 0 in /  0.0 mm
04:47 48 °F /  8.9 °C 46.4 °F /  8.0 °C 30 in /  1015.5 hPa WSW 1 mph /  1.6 km/h 5 mph /  8.0 km/h 94 % 0 in /  0.0 mm
04:52 48 °F /  8.9 °C 46.4 °F /  8.0 °C 30 in /  1015.5 hPa SW 2 mph /  3.2 km/h 5 mph /  8.0 km/h 94 % 0 in /  0.0 mm
05:02 48.4 °F /  9.1 °C 46.8 °F /  8.2 °C 30 in /  1015.5 hPa SW 1 mph /  1.6 km/h 4 mph /  6.4 km/h 94 % 0 in /  0.0 mm
05:12 48.4 °F /  9.1 °C 46.8 °F /  8.2 °C 30 in /  1015.5 hPa WSW 1 mph /  1.6 km/h 4 mph /  6.4 km/h 94 % 0 in /  0.0 mm
05:17 48.6 °F /  9.2 °C 46.9 °F /  8.3 °C 30 in /  1015.5 hPa WSW 1 mph /  1.6 km/h 4 mph /  6.4 km/h 94 % 0 in /  0.0 mm
05:22 48.6 °F /  9.2 °C 46.9 °F /  8.3 °C 30 in /  1015.5 hPa WSW 3 mph /  4.8 km/h 4 mph /  6.4 km/h 94 % 0 in /  0.0 mm
05:32 48.6 °F /  9.2 °C 46.9 °F /  8.3 °C 30 in /  1015.5 hPa Calm   5 mph /  8.0 km/h 94 % 0 in /  0.0 mm
05:42 48.7 °F /  9.3 °C 47.1 °F /  8.4 °C 30 in /  1015.5 hPa WSW 2 mph /  3.2 km/h 5 mph /  8.0 km/h 94 % 0 in /  0.0 mm
05:52 48.7 °F /  9.3 °C 47.1 °F /  8.4 °C 30 in /  1015.5 hPa WSW 3 mph /  4.8 km/h 4 mph /  6.4 km/h 94 % 0 in /  0.0 mm
05:57 48.7 °F /  9.3 °C 47.1 °F /  8.4 °C 30 in /  1015.5 hPa SW 2 mph /  3.2 km/h 6 mph /  9.7 km/h 94 % 0 in /  0.0 mm
06:02 48.7 °F /  9.3 °C 47.1 °F /  8.4 °C 30 in /  1015.5 hPa SSW 2 mph /  3.2 km/h 6 mph /  9.7 km/h 94 % 0 in /  0.0 mm
06:12 48.7 °F /  9.3 °C 47.1 °F /  8.4 °C 30 in /  1015.5 hPa SW 1 mph /  1.6 km/h 6 mph /  9.7 km/h 94 % 0 in /  0.0 mm
06:17 48.7 °F /  9.3 °C 47.1 °F /  8.4 °C 30 in /  1015.5 hPa WSW 1 mph /  1.6 km/h 5 mph /  8.0 km/h 94 % 0 in /  0.0 mm
06:27 48.9 °F /  9.4 °C 47.3 °F /  8.5 °C 30 in /  1015.5 hPa Calm   5 mph /  8.0 km/h 94 % 0 in /  0.0 mm
06:32 48.9 °F /  9.4 °C 47.3 °F /  8.5 °C 30 in /  1015.5 hPa West 1 mph /  1.6 km/h 5 mph /  8.0 km/h 94 % 0 in /  0.0 mm
06:42 48.9 °F /  9.4 °C 47.3 °F /  8.5 °C 30 in /  1015.5 hPa WSW 2 mph /  3.2 km/h 5 mph /  8.0 km/h 94 % 0 in /  0.0 mm
06:47 48.9 °F /  9.4 °C 47.3 °F /  8.5 °C 30 in /  1015.8 hPa West 1 mph /  1.6 km/h 5 mph /  8.0 km/h 94 % 0 in /  0.0 mm
06:52 49.1 °F /  9.5 °C 47.5 °F /  8.6 °C 30 in /  1015.8 hPa SW 2 mph /  3.2 km/h 5 mph /  8.0 km/h 94 % 0 in /  0.0 mm
06:57 49.1 °F /  9.5 °C 47.5 °F /  8.6 °C 30 in /  1015.8 hPa West 1 mph /  1.6 km/h 5 mph /  8.0 km/h 94 % 0 in /  0.0 mm
07:02 49.1 °F /  9.5 °C 47.5 °F /  8.6 °C 30 in /  1016.1 hPa WSW 4 mph /  6.4 km/h 5 mph /  8.0 km/h 94 % 0 in /  0.0 mm
07:12 49.3 °F /  9.6 °C 47.7 °F /  8.7 °C 30 in /  1015.8 hPa Calm   4 mph /  6.4 km/h 94 % 0 in /  0.0 mm
07:17 49.3 °F /  9.6 °C 47.7 °F /  8.7 °C 30 in /  1016.1 hPa Calm   4 mph /  6.4 km/h 94 % 0 in /  0.0 mm
07:22 49.3 °F /  9.6 °C 47.7 °F /  8.7 °C 30 in /  1016.1 hPa Calm   4 mph /  6.4 km/h 94 % 0 in /  0.0 mm
07:32 49.3 °F /  9.6 °C 47.7 °F /  8.7 °C 30 in /  1016.1 hPa Calm   6 mph /  9.7 km/h 94 % 0 in /  0.0 mm
07:42 49.5 °F /  9.7 °C 47.5 °F /  8.6 °C 30 in /  1016.1 hPa WSW 2 mph /  3.2 km/h 4 mph /  6.4 km/h 93 % 0 in /  0.0 mm
07:47 49.3 °F /  9.6 °C 47.3 °F /  8.5 °C 30 in /  1016.1 hPa WSW 4 mph /  6.4 km/h 5 mph /  8.0 km/h 93 % 0 in /  0.0 mm
07:52 49.5 °F /  9.7 °C 47.3 °F /  8.5 °C 30 in /  1016.5 hPa West 1 mph /  1.6 km/h 5 mph /  8.0 km/h 92 % 0 in /  0.0 mm
08:02 49.6 °F /  9.8 °C 47.5 °F /  8.6 °C 30 in /  1016.5 hPa SW 2 mph /  3.2 km/h 7 mph /  11.3 km/h 92 % 0 in /  0.0 mm
08:12 49.8 °F /  9.9 °C 47.7 °F /  8.7 °C 30 in /  1016.5 hPa WSW 7 mph /  11.3 km/h 7 mph /  11.3 km/h 92 % 0 in /  0.0 mm
08:17 49.8 °F /  9.9 °C 47.7 °F /  8.7 °C 30 in /  1016.5 hPa SW 5 mph /  8.0 km/h 6 mph /  9.7 km/h 92 % 0 in /  0.0 mm
08:22 49.8 °F /  9.9 °C 47.3 °F /  8.5 °C 30 in /  1016.5 hPa West 2 mph /  3.2 km/h 6 mph /  9.7 km/h 91 % 0 in /  0.0 mm
08:27 49.8 °F /  9.9 °C 47.3 °F /  8.5 °C 30 in /  1016.5 hPa WSW 7 mph /  11.3 km/h 8 mph /  12.9 km/h 91 % 0 in /  0.0 mm
08:32 49.8 °F /  9.9 °C 47.3 °F /  8.5 °C 30 in /  1016.8 hPa SW 5 mph /  8.0 km/h 8 mph /  12.9 km/h 91 % 0 in /  0.0 mm
08:42 49.6 °F /  9.8 °C 47.5 °F /  8.6 °C 30 in /  1016.8 hPa SW 4 mph /  6.4 km/h 10 mph /  16.1 km/h 92 % 0 in /  0.0 mm
08:47 49.6 °F /  9.8 °C 47.5 °F /  8.6 °C 30 in /  1016.8 hPa SW 2 mph /  3.2 km/h 8 mph /  12.9 km/h 92 % 0 in /  0.0 mm
08:52 49.5 °F /  9.7 °C 47.3 °F /  8.5 °C 30 in /  1016.8 hPa SW 3 mph /  4.8 km/h 8 mph /  12.9 km/h 92 % 0 in /  0.0 mm
09:02 49.5 °F /  9.7 °C 47.5 °F /  8.6 °C 30 in /  1016.8 hPa SW 3 mph /  4.8 km/h 8 mph /  12.9 km/h 93 % 0.02 in /  0.5 mm
09:12 49.6 °F /  9.8 °C 47.7 °F /  8.7 °C 30 in /  1016.8 hPa WSW 2 mph /  3.2 km/h 6 mph /  9.7 km/h 93 % 0.02 in /  0.5 mm
09:17 49.6 °F /  9.8 °C 47.5 °F /  8.6 °C 30 in /  1016.8 hPa WSW 4 mph /  6.4 km/h 8 mph /  12.9 km/h 92 % 0.03 in /  0.8 mm
09:22 50.2 °F /  10.1 °C 48.2 °F /  9.0 °C 30 in /  1016.8 hPa WSW 4 mph /  6.4 km/h 8 mph /  12.9 km/h 93 % 0.03 in /  0.8 mm
09:32 50.4 °F /  10.2 °C 47.8 °F /  8.8 °C 30 in /  1016.8 hPa South 4 mph /  6.4 km/h 8 mph /  12.9 km/h 91 % 0.03 in /  0.8 mm
09:42 50.9 °F /  10.5 °C 48.4 °F /  9.1 °C 30 in /  1017.2 hPa WNW 4 mph /  6.4 km/h 9 mph /  14.5 km/h 91 % 0.03 in /  0.8 mm
09:47 51.1 °F /  10.6 °C 48.2 °F /  9.0 °C 30 in /  1017.2 hPa West 3 mph /  4.8 km/h 9 mph /  14.5 km/h 90 % 0.02 in /  0.5 mm
09:52 51.1 °F /  10.6 °C 47.3 °F /  8.5 °C 30 in /  1017.2 hPa WSW 4 mph /  6.4 km/h 9 mph /  14.5 km/h 87 % 0.02 in /  0.5 mm
10:02 51.6 °F /  10.9 °C 47.8 °F /  8.8 °C 30 in /  1017.2 hPa West 3 mph /  4.8 km/h 9 mph /  14.5 km/h 87 % 0.02 in /  0.5 mm
10:12 51.6 °F /  10.9 °C 47.3 °F /  8.5 °C 30 in /  1017.2 hPa SSW 5 mph /  8.0 km/h 10 mph /  16.1 km/h 85 % 0.01 in /  0.3 mm
10:17 51.6 °F /  10.9 °C 47.3 °F /  8.5 °C 30 in /  1017.2 hPa WNW 3 mph /  4.8 km/h 12 mph /  19.3 km/h 85 % 0 in /  0.0 mm
10:22 51.6 °F /  10.9 °C 47.5 °F /  8.6 °C 30 in /  1017.2 hPa West 3 mph /  4.8 km/h 12 mph /  19.3 km/h 86 % 0 in /  0.0 mm
10:32 50.7 °F /  10.4 °C 46.8 °F /  8.2 °C 30 in /  1017.2 hPa WNW 2 mph /  3.2 km/h 12 mph /  19.3 km/h 86 % 0 in /  0.0 mm
10:37 50.4 °F /  10.2 °C 46.6 °F /  8.1 °C 30 in /  1017.2 hPa WSW 5 mph /  8.0 km/h 11 mph /  17.7 km/h 87 % 0 in /  0.0 mm
10:42 50 °F /  10.0 °C 46.6 °F /  8.1 °C 30.1 in /  1017.5 hPa SW 6 mph /  9.7 km/h 11 mph /  17.7 km/h 88 % 0 in /  0.0 mm
10:52 49.3 °F /  9.6 °C 46.4 °F /  8.0 °C 30 in /  1017.2 hPa West 2 mph /  3.2 km/h 9 mph /  14.5 km/h 90 % 0.02 in /  0.5 mm
10:57 49.5 °F /  9.7 °C 46.6 °F /  8.1 °C 30 in /  1017.2 hPa WNW 2 mph /  3.2 km/h 9 mph /  14.5 km/h 90 % 0.09 in /  2.3 mm
11:02 50.2 °F /  10.1 °C 48 °F /  8.9 °C 30 in /  1017.2 hPa WSW 4 mph /  6.4 km/h 9 mph /  14.5 km/h 92 % 0.09 in /  2.3 mm
11:07 50.5 °F /  10.3 °C 47.7 °F /  8.7 °C 30 in /  1017.2 hPa WNW 6 mph /  9.7 km/h 9 mph /  14.5 km/h 90 % 0.09 in /  2.3 mm
11:12 51.1 °F /  10.6 °C 47.7 °F /  8.7 °C 30 in /  1017.2 hPa SW 5 mph /  8.0 km/h 9 mph /  14.5 km/h 88 % 0.09 in /  2.3 mm
11:17 51.3 °F /  10.7 °C 46.6 °F /  8.1 °C 30 in /  1017.2 hPa WSW 6 mph /  9.7 km/h 13 mph /  20.9 km/h 84 % 0.09 in /  2.3 mm
11:22 51.8 °F /  11.0 °C 47.7 °F /  8.7 °C 30 in /  1017.2 hPa SSW 5 mph /  8.0 km/h 13 mph /  20.9 km/h 86 % 0.09 in /  2.3 mm
11:32 53.8 °F /  12.1 °C 48.4 °F /  9.1 °C 30 in /  1017.2 hPa WSW 8 mph /  12.9 km/h 12 mph /  19.3 km/h 82 % 0.09 in /  2.3 mm
11:37 54.1 °F /  12.3 °C 48.4 °F /  9.1 °C 30 in /  1017.2 hPa WSW 6 mph /  9.7 km/h 14 mph /  22.5 km/h 81 % 0.09 in /  2.3 mm
11:47 54.5 °F /  12.5 °C 48.4 °F /  9.1 °C 30.1 in /  1017.5 hPa WSW 11 mph /  17.7 km/h 15 mph /  24.1 km/h 80 % 0.03 in /  0.8 mm
11:52 54 °F /  12.2 °C 46.6 °F /  8.1 °C 30.1 in /  1017.5 hPa WSW 13 mph /  20.9 km/h 16 mph /  25.7 km/h 76 % 0 in /  0.0 mm
12:02 54.9 °F /  12.7 °C 47.5 °F /  8.6 °C 30 in /  1017.2 hPa SSW 8 mph /  12.9 km/h 16 mph /  25.7 km/h 76 % 0 in /  0.0 mm
12:07 54.9 °F /  12.7 °C 45.3 °F /  7.4 °C 30 in /  1017.2 hPa WNW 6 mph /  9.7 km/h 15 mph /  24.1 km/h 70 % 0 in /  0.0 mm
12:12 54.9 °F /  12.7 °C 45 °F /  7.2 °C 30 in /  1017.2 hPa West 11 mph /  17.7 km/h 16 mph /  25.7 km/h 69 % 0 in /  0.0 mm
12:17 54.9 °F /  12.7 °C 47.1 °F /  8.4 °C 30 in /  1017.2 hPa SW 10 mph /  16.1 km/h 16 mph /  25.7 km/h 75 % 0 in /  0.0 mm
12:22 55 °F /  12.8 °C 46.2 °F /  7.9 °C 30 in /  1017.2 hPa SW 4 mph /  6.4 km/h 16 mph /  25.7 km/h 72 % 0 in /  0.0 mm
12:27 55.2 °F /  12.9 °C 46.4 °F /  8.0 °C 30 in /  1017.2 hPa WSW 8 mph /  12.9 km/h 16 mph /  25.7 km/h 72 % 0 in /  0.0 mm
12:32 55.2 °F /  12.9 °C 44.4 °F /  6.9 °C 30 in /  1017.2 hPa SW 3 mph /  4.8 km/h 13 mph /  20.9 km/h 67 % 0 in /  0.0 mm
12:37 55.8 °F /  13.2 °C 45.3 °F /  7.4 °C 30 in /  1017.2 hPa SW 6 mph /  9.7 km/h 13 mph /  20.9 km/h 68 % 0 in /  0.0 mm
12:42 55.9 °F /  13.3 °C 45.9 °F /  7.7 °C 30 in /  1017.2 hPa WSW 8 mph /  12.9 km/h 13 mph /  20.9 km/h 69 % 0 in /  0.0 mm
12:47 56.3 °F /  13.5 °C 46.2 °F /  7.9 °C 30 in /  1017.2 hPa SW 12 mph /  19.3 km/h 15 mph /  24.1 km/h 69 % 0 in /  0.0 mm
12:57 55.2 °F /  12.9 °C 46.4 °F /  8.0 °C 30 in /  1017.2 hPa West 5 mph /  8.0 km/h 17 mph /  27.4 km/h 72 % 0 in /  0.0 mm
13:02 55.4 °F /  13.0 °C 46.6 °F /  8.1 °C 30 in /  1017.2 hPa SW 7 mph /  11.3 km/h 17 mph /  27.4 km/h 72 % 0 in /  0.0 mm
13:07 56.5 °F /  13.6 °C 44.8 °F /  7.1 °C 30 in /  1017.2 hPa SW 10 mph /  16.1 km/h 13 mph /  20.9 km/h 65 % 0 in /  0.0 mm
13:12 56.5 °F /  13.6 °C 43.7 °F /  6.5 °C 30 in /  1017.2 hPa WSW 5 mph /  8.0 km/h 13 mph /  20.9 km/h 62 % 0 in /  0.0 mm
13:17 56.1 °F /  13.4 °C 45 °F /  7.2 °C 30 in /  1017.2 hPa WSW 5 mph /  8.0 km/h 14 mph /  22.5 km/h 66 % 0 in /  0.0 mm
13:22 56.5 °F /  13.6 °C 45.7 °F /  7.6 °C 30 in /  1017.2 hPa WSW 10 mph /  16.1 km/h 14 mph /  22.5 km/h 67 % 0 in /  0.0 mm
13:32 56.7 °F /  13.7 °C 45.9 °F /  7.7 °C 30 in /  1017.2 hPa SW 8 mph /  12.9 km/h 14 mph /  22.5 km/h 67 % 0 in /  0.0 mm
13:37 57 °F /  13.9 °C 46.2 °F /  7.9 °C 30 in /  1017.2 hPa SW 8 mph /  12.9 km/h 14 mph /  22.5 km/h 67 % 0 in /  0.0 mm
13:42 57 °F /  13.9 °C 45 °F /  7.2 °C 30 in /  1017.2 hPa SSW 5 mph /  8.0 km/h 16 mph /  25.7 km/h 64 % 0 in /  0.0 mm
13:52 57.6 °F /  14.2 °C 44.6 °F /  7.0 °C 30 in /  1017.2 hPa WSW 15 mph /  24.1 km/h 16 mph /  25.7 km/h 62 % 0 in /  0.0 mm
13:57 56.1 °F /  13.4 °C 46.8 °F /  8.2 °C 30 in /  1017.2 hPa WSW 6 mph /  9.7 km/h 22 mph /  35.4 km/h 71 % 0 in /  0.0 mm
14:02 53.8 °F /  12.1 °C 46.4 °F /  8.0 °C 30.1 in /  1017.5 hPa SW 13 mph /  20.9 km/h 22 mph /  35.4 km/h 76 % 0 in /  0.0 mm
14:07 52.5 °F /  11.4 °C 46.9 °F /  8.3 °C 30.1 in /  1017.5 hPa WSW 15 mph /  24.1 km/h 22 mph /  35.4 km/h 81 % 0 in /  0.0 mm
14:17 51.8 °F /  11.0 °C 48 °F /  8.9 °C 30.1 in /  1017.5 hPa WSW 7 mph /  11.3 km/h 19 mph /  30.6 km/h 87 % 0.01 in /  0.3 mm
14:22 51.8 °F /  11.0 °C 47.1 °F /  8.4 °C 30.1 in /  1017.5 hPa WSW 5 mph /  8.0 km/h 19 mph /  30.6 km/h 84 % 0.01 in /  0.3 mm
14:32 51.4 °F /  10.8 °C 46.2 °F /  7.9 °C 30.1 in /  1017.5 hPa SW 4 mph /  6.4 km/h 15 mph /  24.1 km/h 82 % 0.02 in /  0.5 mm
14:37 51.3 °F /  10.7 °C 46.2 °F /  7.9 °C 30.1 in /  1017.5 hPa SW 4 mph /  6.4 km/h 15 mph /  24.1 km/h 83 % 0.02 in /  0.5 mm
14:42 51.4 °F /  10.8 °C 46.4 °F /  8.0 °C 30.1 in /  1017.5 hPa WSW 8 mph /  12.9 km/h 15 mph /  24.1 km/h 83 % 0.02 in /  0.5 mm
14:52 52.9 °F /  11.6 °C 47.3 °F /  8.5 °C 30.1 in /  1017.5 hPa SW 5 mph /  8.0 km/h 11 mph /  17.7 km/h 81 % 0.02 in /  0.5 mm
14:57 54 °F /  12.2 °C 47.7 °F /  8.7 °C 30 in /  1017.2 hPa SSW 5 mph /  8.0 km/h 11 mph /  17.7 km/h 79 % 0.02 in /  0.5 mm
15:02 55 °F /  12.8 °C 48 °F /  8.9 °C 30 in /  1017.2 hPa SW 2 mph /  3.2 km/h 11 mph /  17.7 km/h 77 % 0.02 in /  0.5 mm
15:07 55.8 °F /  13.2 °C 46 °F /  7.8 °C 30 in /  1017.2 hPa WSW 8 mph /  12.9 km/h 12 mph /  19.3 km/h 70 % 0.02 in /  0.5 mm
15:12 56.3 °F /  13.5 °C 46.2 °F /  7.9 °C 30 in /  1017.2 hPa South 6 mph /  9.7 km/h 12 mph /  19.3 km/h 69 % 0.01 in /  0.3 mm
15:17 56.1 °F /  13.4 °C 47.3 °F /  8.5 °C 30 in /  1017.2 hPa SW 4 mph /  6.4 km/h 15 mph /  24.1 km/h 72 % 0.01 in /  0.3 mm
15:22 56.5 °F /  13.6 °C 45.7 °F /  7.6 °C 30 in /  1017.2 hPa WSW 5 mph /  8.0 km/h 15 mph /  24.1 km/h 67 % 0.01 in /  0.3 mm
15:32 55.9 °F /  13.3 °C 44.4 °F /  6.9 °C 30 in /  1017.2 hPa SW 11 mph /  17.7 km/h 15 mph /  24.1 km/h 65 % 0 in /  0.0 mm
15:37 55.6 °F /  13.1 °C 43.5 °F /  6.4 °C 30 in /  1017.2 hPa SSW 6 mph /  9.7 km/h 14 mph /  22.5 km/h 64 % 0 in /  0.0 mm
15:42 55.6 °F /  13.1 °C 44.8 °F /  7.1 °C 30 in /  1017.2 hPa WSW 6 mph /  9.7 km/h 14 mph /  22.5 km/h 67 % 0 in /  0.0 mm
15:47 56.1 °F /  13.4 °C 45.3 °F /  7.4 °C 30 in /  1017.2 hPa West 9 mph /  14.5 km/h 15 mph /  24.1 km/h 67 % 0 in /  0.0 mm
15:57 57 °F /  13.9 °C 46.2 °F /  7.9 °C 30 in /  1017.2 hPa SW 2 mph /  3.2 km/h 14 mph /  22.5 km/h 67 % 0 in /  0.0 mm
16:02 56.8 °F /  13.8 °C 45.7 °F /  7.6 °C 30 in /  1017.2 hPa SW 7 mph /  11.3 km/h 14 mph /  22.5 km/h 66 % 0 in /  0.0 mm
16:07 56.8 °F /  13.8 °C 46 °F /  7.8 °C 30 in /  1017.2 hPa WSW 5 mph /  8.0 km/h 11 mph /  17.7 km/h 67 % 0 in /  0.0 mm
16:12 56.5 °F /  13.6 °C 44.4 °F /  6.9 °C 30 in /  1017.2 hPa WSW 6 mph /  9.7 km/h 11 mph /  17.7 km/h 64 % 0 in /  0.0 mm
16:17 55.9 °F /  13.3 °C 44.8 °F /  7.1 °C 30 in /  1017.2 hPa WSW 7 mph /  11.3 km/h 11 mph /  17.7 km/h 66 % 0 in /  0.0 mm
16:22 55.8 °F /  13.2 °C 43.7 °F /  6.5 °C 30.1 in /  1017.5 hPa West 7 mph /  11.3 km/h 11 mph /  17.7 km/h 64 % 0 in /  0.0 mm
16:27 55.6 °F /  13.1 °C 43.5 °F /  6.4 °C 30.1 in /  1017.5 hPa SW 6 mph /  9.7 km/h 13 mph /  20.9 km/h 64 % 0 in /  0.0 mm
16:32 55.4 °F /  13.0 °C 44.6 °F /  7.0 °C 30.1 in /  1017.5 hPa West 1 mph /  1.6 km/h 13 mph /  20.9 km/h 67 % 0 in /  0.0 mm
16:37 55.2 °F /  12.9 °C 44.4 °F /  6.9 °C 30 in /  1017.2 hPa WSW 4 mph /  6.4 km/h 8 mph /  12.9 km/h 67 % 0 in /  0.0 mm
16:42 55 °F /  12.8 °C 44.2 °F /  6.8 °C 30.1 in /  1017.5 hPa WSW 4 mph /  6.4 km/h 8 mph /  12.9 km/h 67 % 0 in /  0.0 mm
16:47 54.9 °F /  12.7 °C 44.4 °F /  6.9 °C 30.1 in /  1017.5 hPa SSW 4 mph /  6.4 km/h 10 mph /  16.1 km/h 68 % 0 in /  0.0 mm
16:52 55 °F /  12.8 °C 46.2 °F /  7.9 °C 30.1 in /  1017.5 hPa WSW 8 mph /  12.9 km/h 10 mph /  16.1 km/h 72 % 0 in /  0.0 mm
16:57 54.9 °F /  12.7 °C 45.3 °F /  7.4 °C 30.1 in /  1017.5 hPa SW 6 mph /  9.7 km/h 12 mph /  19.3 km/h 70 % 0 in /  0.0 mm
17:02 55.2 °F /  12.9 °C 46 °F /  7.8 °C 30.1 in /  1017.5 hPa WSW 6 mph /  9.7 km/h 12 mph /  19.3 km/h 71 % 0 in /  0.0 mm
17:07 55.6 °F /  13.1 °C 45.5 °F /  7.5 °C 30.1 in /  1017.5 hPa WNW 9 mph /  14.5 km/h 13 mph /  20.9 km/h 69 % 0 in /  0.0 mm
17:12 55 °F /  12.8 °C 46.2 °F /  7.9 °C 30.1 in /  1017.5 hPa WNW 6 mph /  9.7 km/h 13 mph /  20.9 km/h 72 % 0 in /  0.0 mm
17:17 54.3 °F /  12.4 °C 46.2 °F /  7.9 °C 30.1 in /  1017.5 hPa WNW 2 mph /  3.2 km/h 13 mph /  20.9 km/h 74 % 0 in /  0.0 mm
17:22 53.6 °F /  12.0 °C 44.4 °F /  6.9 °C 30.1 in /  1017.5 hPa West 7 mph /  11.3 km/h 13 mph /  20.9 km/h 71 % 0 in /  0.0 mm
17:32 52.7 °F /  11.5 °C 44.6 °F /  7.0 °C 30.1 in /  1017.5 hPa WNW 2 mph /  3.2 km/h 10 mph /  16.1 km/h 74 % 0 in /  0.0 mm
17:37 52.7 °F /  11.5 °C 45 °F /  7.2 °C 30 in /  1017.2 hPa NW 4 mph /  6.4 km/h 9 mph /  14.5 km/h 75 % 0 in /  0.0 mm
17:42 52.5 °F /  11.4 °C 44.4 °F /  6.9 °C 30 in /  1017.2 hPa WNW 3 mph /  4.8 km/h 9 mph /  14.5 km/h 74 % 0 in /  0.0 mm
17:47 52.3 °F /  11.3 °C 45 °F /  7.2 °C 30.1 in /  1017.5 hPa NW 2 mph /  3.2 km/h 6 mph /  9.7 km/h 76 % 0 in /  0.0 mm
17:52 51.8 °F /  11.0 °C 44.8 °F /  7.1 °C 30.1 in /  1017.5 hPa Calm   6 mph /  9.7 km/h 77 % 0.01 in /  0.3 mm
18:02 51.1 °F /  10.6 °C 45.5 °F /  7.5 °C 30.1 in /  1018.2 hPa WNW 4 mph /  6.4 km/h 4 mph /  6.4 km/h 81 % 0.02 in /  0.5 mm
18:12 50 °F /  10.0 °C 45.3 °F /  7.4 °C 30.1 in /  1018.2 hPa West 1 mph /  1.6 km/h 13 mph /  20.9 km/h 84 % 0.06 in /  1.5 mm
18:17 50.2 °F /  10.1 °C 45.9 °F /  7.7 °C 30.1 in /  1017.8 hPa NW 2 mph /  3.2 km/h 13 mph /  20.9 km/h 85 % 0.06 in /  1.5 mm
18:22 50.4 °F /  10.2 °C 46.4 °F /  8.0 °C 30.1 in /  1017.8 hPa NNW 2 mph /  3.2 km/h 13 mph /  20.9 km/h 86 % 0.06 in /  1.5 mm
18:27 50.4 °F /  10.2 °C 46.4 °F /  8.0 °C 30.1 in /  1017.8 hPa NNW 4 mph /  6.4 km/h 13 mph /  20.9 km/h 86 % 0.06 in /  1.5 mm
18:32 50.2 °F /  10.1 °C 46.2 °F /  7.9 °C 30.1 in /  1017.8 hPa WNW 3 mph /  4.8 km/h 4 mph /  6.4 km/h 86 % 0.06 in /  1.5 mm
18:37 50.4 °F /  10.2 °C 46.4 °F /  8.0 °C 30.1 in /  1017.8 hPa NW 2 mph /  3.2 km/h 4 mph /  6.4 km/h 86 % 0.06 in /  1.5 mm
18:42 50.7 °F /  10.4 °C 46.4 °F /  8.0 °C 30.1 in /  1017.8 hPa Calm   8 mph /  12.9 km/h 85 % 0.06 in /  1.5 mm
18:47 51.6 °F /  10.9 °C 46.6 °F /  8.1 °C 30.1 in /  1017.8 hPa North 3 mph /  4.8 km/h 5 mph /  8.0 km/h 83 % 0.06 in /  1.5 mm
18:52 51.6 °F /  10.9 °C 46 °F /  7.8 °C 30.1 in /  1017.8 hPa NNW 4 mph /  6.4 km/h 5 mph /  8.0 km/h 81 % 0.06 in /  1.5 mm
19:02 52.5 °F /  11.4 °C 46.6 °F /  8.1 °C 30.1 in /  1018.2 hPa North 1 mph /  1.6 km/h 6 mph /  9.7 km/h 80 % 0.03 in /  0.8 mm
19:12 52.7 °F /  11.5 °C 45.3 °F /  7.4 °C 30.1 in /  1018.2 hPa North 1 mph /  1.6 km/h 6 mph /  9.7 km/h 76 % 0 in /  0.0 mm
19:22 52 °F /  11.1 °C 45.7 °F /  7.6 °C 30.1 in /  1018.5 hPa North 1 mph /  1.6 km/h 3 mph /  4.8 km/h 79 % 0 in /  0.0 mm
19:27 51.4 °F /  10.8 °C 45.9 °F /  7.7 °C 30.1 in /  1018.2 hPa Calm   4 mph /  6.4 km/h 81 % 0 in /  0.0 mm
19:32 51.3 °F /  10.7 °C 46 °F /  7.8 °C 30.1 in /  1018.5 hPa WNW 1 mph /  1.6 km/h 4 mph /  6.4 km/h 82 % 0 in /  0.0 mm
19:42 50.5 °F /  10.3 °C 45.9 °F /  7.7 °C 30.1 in /  1018.2 hPa NE 1 mph /  1.6 km/h 4 mph /  6.4 km/h 84 % 0.02 in /  0.5 mm
19:52 49.8 °F /  9.9 °C 46 °F /  7.8 °C 30.1 in /  1018.5 hPa Calm   4 mph /  6.4 km/h 87 % 0.02 in /  0.5 mm
19:57 49.8 °F /  9.9 °C 46 °F /  7.8 °C 30.1 in /  1018.2 hPa Calm   3 mph /  4.8 km/h 87 % 0.02 in /  0.5 mm
20:02 49.6 °F /  9.8 °C 45.9 °F /  7.7 °C 30.1 in /  1018.2 hPa Calm   3 mph /  4.8 km/h 87 % 0.02 in /  0.5 mm
20:12 49.8 °F /  9.9 °C 46.4 °F /  8.0 °C 30.1 in /  1018.2 hPa Calm   1 mph /  1.6 km/h 88 % 0.02 in /  0.5 mm
20:17 49.8 °F /  9.9 °C 46.8 °F /  8.2 °C 30.1 in /  1018.5 hPa Calm     89 % 0.02 in /  0.5 mm
20:22 50 °F /  10.0 °C 46.9 °F /  8.3 °C 30.1 in /  1018.5 hPa Calm     89 % 0.02 in /  0.5 mm
20:32 49.8 °F /  9.9 °C 46.8 °F /  8.2 °C 30.1 in /  1018.5 hPa Calm     89 % 0.02 in /  0.5 mm
20:42 49.6 °F /  9.8 °C 46.8 °F /  8.2 °C 30.1 in /  1018.5 hPa Calm     90 % 0 in /  0.0 mm
20:47 49.8 °F /  9.9 °C 47.3 °F /  8.5 °C 30.1 in /  1018.5 hPa Calm   1 mph /  1.6 km/h 91 % 0 in /  0.0 mm
20:52 49.6 °F /  9.8 °C 47.1 °F /  8.4 °C 30.1 in /  1018.5 hPa Calm   1 mph /  1.6 km/h 91 % 0 in /  0.0 mm
20:57 49.5 °F /  9.7 °C 46.9 °F /  8.3 °C 30.1 in /  1018.5 hPa Calm   1 mph /  1.6 km/h 91 % 0 in /  0.0 mm
21:02 49.3 °F /  9.6 °C 46.8 °F /  8.2 °C 30.1 in /  1018.5 hPa Calm   1 mph /  1.6 km/h 91 % 0 in /  0.0 mm
21:07 49.1 °F /  9.5 °C 46.6 °F /  8.1 °C 30.1 in /  1018.5 hPa Calm   1 mph /  1.6 km/h 91 % 0 in /  0.0 mm
21:12 49.1 °F /  9.5 °C 46.9 °F /  8.3 °C 30.1 in /  1018.5 hPa ESE 1 mph /  1.6 km/h 1 mph /  1.6 km/h 92 % 0 in /  0.0 mm
21:17 49.1 °F /  9.5 °C 46.9 °F /  8.3 °C 30.1 in /  1018.5 hPa Calm   1 mph /  1.6 km/h 92 % 0 in /  0.0 mm
21:22 49.1 °F /  9.5 °C 46.9 °F /  8.3 °C 30.1 in /  1018.5 hPa Calm   1 mph /  1.6 km/h 92 % 0 in /  0.0 mm
21:32 48.9 °F /  9.4 °C 46.8 °F /  8.2 °C 30.1 in /  1018.5 hPa Calm   1 mph /  1.6 km/h 92 % 0 in /  0.0 mm
21:37 48.7 °F /  9.3 °C 46.6 °F /  8.1 °C 30.1 in /  1018.8 hPa WSW 2 mph /  3.2 km/h 2 mph /  3.2 km/h 92 % 0 in /  0.0 mm
21:42 48.7 °F /  9.3 °C 46.2 °F /  7.9 °C 30.1 in /  1019.2 hPa WSW 10 mph /  16.1 km/h 10 mph /  16.1 km/h 91 % 0.03 in /  0.8 mm
21:52 47.8 °F /  8.8 °C 44.4 °F /  6.9 °C 30.1 in /  1019.2 hPa WNW 1 mph /  1.6 km/h 13 mph /  20.9 km/h 88 % 0.06 in /  1.5 mm
21:57 47.8 °F /  8.8 °C 44.4 °F /  6.9 °C 30.1 in /  1019.2 hPa West 1 mph /  1.6 km/h 13 mph /  20.9 km/h 88 % 0.07 in /  1.8 mm
22:02 47.7 °F /  8.7 °C 44.2 °F /  6.8 °C 30.1 in /  1019.2 hPa Calm   13 mph /  20.9 km/h 88 % 0.07 in /  1.8 mm
22:12 47.5 °F /  8.6 °C 44.4 °F /  6.9 °C 30.1 in /  1019.2 hPa WNW 3 mph /  4.8 km/h 6 mph /  9.7 km/h 89 % 0.07 in /  1.8 mm
22:17 47.3 °F /  8.5 °C 44.2 °F /  6.8 °C 30.1 in /  1019.2 hPa SSW 3 mph /  4.8 km/h 6 mph /  9.7 km/h 89 % 0.07 in /  1.8 mm
22:22 47.3 °F /  8.5 °C 44.6 °F /  7.0 °C 30.1 in /  1019.2 hPa WSW 4 mph /  6.4 km/h 6 mph /  9.7 km/h 90 % 0.07 in /  1.8 mm
22:32 47.1 °F /  8.4 °C 44.6 °F /  7.0 °C 30.1 in /  1019.2 hPa SSW 4 mph /  6.4 km/h 7 mph /  11.3 km/h 91 % 0.07 in /  1.8 mm
22:42 47.1 °F /  8.4 °C 45 °F /  7.2 °C 30.1 in /  1019.2 hPa Calm   7 mph /  11.3 km/h 92 % 0.02 in /  0.5 mm
22:47 47.1 °F /  8.4 °C 45 °F /  7.2 °C 30.1 in /  1019.2 hPa SE 2 mph /  3.2 km/h 5 mph /  8.0 km/h 92 % 0.01 in /  0.3 mm
22:52 46.9 °F /  8.3 °C 45 °F /  7.2 °C 30.1 in /  1019.2 hPa SSW 2 mph /  3.2 km/h 5 mph /  8.0 km/h 93 % 0.01 in /  0.3 mm
22:57 46.9 °F /  8.3 °C 45 °F /  7.2 °C 30.1 in /  1019.2 hPa SSW 2 mph /  3.2 km/h 5 mph /  8.0 km/h 93 % 0 in /  0.0 mm
23:02 46.9 °F /  8.3 °C 45 °F /  7.2 °C 30.1 in /  1019.2 hPa SSW 2 mph /  3.2 km/h 5 mph /  8.0 km/h 93 % 0 in /  0.0 mm
23:12 46.8 °F /  8.2 °C 44.8 °F /  7.1 °C 30.1 in /  1019.2 hPa South 3 mph /  4.8 km/h 4 mph /  6.4 km/h 93 % 0 in /  0.0 mm
23:17 46.6 °F /  8.1 °C 45 °F /  7.2 °C 30.1 in /  1019.2 hPa SSW 4 mph /  6.4 km/h 5 mph /  8.0 km/h 94 % 0 in /  0.0 mm
23:22 46.6 °F /  8.1 °C 45 °F /  7.2 °C 30.1 in /  1019.2 hPa SW 6 mph /  9.7 km/h 6 mph /  9.7 km/h 94 % 0 in /  0.0 mm
23:32 46.6 °F /  8.1 °C 45 °F /  7.2 °C 30.1 in /  1019.2 hPa SSW 6 mph /  9.7 km/h 6 mph /  9.7 km/h 94 % 0 in /  0.0 mm
23:42 46.6 °F /  8.1 °C 45 °F /  7.2 °C 30.1 in /  1019.5 hPa SSW 2 mph /  3.2 km/h 8 mph /  12.9 km/h 94 % 0 in /  0.0 mm
23:47 46.6 °F /  8.1 °C 45.1 °F /  7.3 °C 30.1 in /  1019.5 hPa SSW 3 mph /  4.8 km/h 8 mph /  12.9 km/h 95 % 0 in /  0.0 mm
23:52 46.6 °F /  8.1 °C 45.1 °F /  7.3 °C 30.1 in /  1019.5 hPa SSW 2 mph /  3.2 km/h 8 mph /  12.9 km/h 95 % 0 in /  0.0 mm
Meteo18
Compliments of Weather Underground - 4 mb

Script developed by  Jim McMurry - jmcmurry@mwt.net Adapted for the template by  Wim van der Kuil - Leuven-Template.eu

You find our weather info also at:

European Weather Network

Weather Underground

Equipment we use:

Weather-station
Davis Vue

Weather-program
Meteohub

Weather-server
Raspberry PI 2 B+

Provider
1 and 1

Davis Vue

Meteohub

Raspberry PI 2 B+

1 and 1